Time;durP1;ratioP1;P1;durP2;ratioP2;P2;SDS_P1;SDS_P2;PMS_P1;PMS_P2;Temp;Humidity;BMP_temperature;BMP_pressure;BME280_temperature;BME280_humidity;BME280_pressure;Samples;Min_cycle;Max_cycle;Signal;HPM_P1;HPM_P2
2022/04/09 00:01:26;;;;;;;22.27;12.95;;;;;;;;;;6372584;27;20386;-79
2022/04/09 00:04:26;;;;;;;23.90;13.27;;;;;;;;;;6372056;27;20379;-79
2022/04/09 00:07:26;;;;;;;27.48;14.88;;;;;;;;;;6372286;27;20526;-79
2022/04/09 00:10:26;;;;;;;48.20;20.90;;;;;;;;;;6372081;27;20023;-79
2022/04/09 00:13:27;;;;;;;57.28;24.13;;;;;;;;;;6353967;27;20267;-79
2022/04/09 00:16:27;;;;;;;54.97;21.98;;;;;;;;;;6372636;27;20023;-80
2022/04/09 00:19:27;;;;;;;47.80;22.00;;;;;;;;;;6372539;27;20076;-79
2022/04/09 00:22:27;;;;;;;36.37;19.07;;;;;;;;;;6352917;27;20800;-80
2022/04/09 00:25:28;;;;;;;34.90;19.73;;;;;;;;;;6366514;27;20273;-80
2022/04/09 00:28:28;;;;;;;41.38;21.85;;;;;;;;;;6353773;27;20345;-79
2022/04/09 00:31:28;;;;;;;54.60;27.70;;;;;;;;;;6337699;28;20047;-79
2022/04/09 00:34:28;;;;;;;58.17;26.95;;;;;;;;;;6346240;28;20283;-79
2022/04/09 00:37:29;;;;;;;47.47;23.97;;;;;;;;;;6346532;28;20073;-79
2022/04/09 00:40:29;;;;;;;47.33;22.35;;;;;;;;;;6358933;27;20256;-79
2022/04/09 00:43:30;;;;;;;39.08;18.65;;;;;;;;;;6371370;27;20438;-80
2022/04/09 00:46:30;;;;;;;33.53;18.98;;;;;;;;;;6371344;27;20023;-80
2022/04/09 00:49:30;;;;;;;27.53;16.70;;;;;;;;;;6352536;27;20037;-78
2022/04/09 00:52:32;;;;;;;27.77;16.17;;;;;;;;;;6371457;27;20253;-82
2022/04/09 00:58:56;;;;;;;26.60;17.05;;;;;;;;;;6371757;27;20031;-80
2022/04/09 01:01:56;;;;;;;30.30;17.95;;;;;;;;;;6352259;27;20027;-79
2022/04/09 01:04:58;;;;;;;26.27;16.90;;;;;;;;;;6371351;27;20030;-80
2022/04/09 01:07:58;;;;;;;20.17;13.20;;;;;;;;;;6371352;27;20045;-80
2022/04/09 01:10:58;;;;;;;40.30;21.30;;;;;;;;;;6370739;27;20053;-80
2022/04/09 01:13:59;;;;;;;36.58;19.02;;;;;;;;;;6371376;27;20102;-80
2022/04/09 01:17:00;;;;;;;26.88;16.17;;;;;;;;;;6335259;28;20027;-79
2022/04/09 01:20:13;;;;;;;27.60;15.80;;;;;;;;;;6345037;28;20051;-79
2022/04/09 01:23:13;;;;;;;22.73;13.40;;;;;;;;;;6345265;28;20031;-79
2022/04/09 01:26:15;;;;;;;26.63;15.95;;;;;;;;;;6346679;27;20027;-79
2022/04/09 01:29:15;;;;;;;25.10;14.73;;;;;;;;;;6370446;27;20111;-79
2022/04/09 01:32:15;;;;;;;21.73;13.10;;;;;;;;;;6356552;27;20100;-79
2022/04/09 01:35:15;;;;;;;27.95;16.95;;;;;;;;;;6326315;28;20039;-80
2022/04/09 01:38:16;;;;;;;29.00;16.30;;;;;;;;;;6344722;28;20394;-79
2022/04/09 01:41:16;;;;;;;28.10;16.40;;;;;;;;;;6367271;27;20019;-80
2022/04/09 01:44:16;;;;;;;28.58;17.60;;;;;;;;;;6370059;27;20035;-79
2022/04/09 01:47:17;;;;;;;26.67;15.40;;;;;;;;;;6370135;27;20034;-80
2022/04/09 01:50:17;;;;;;;31.50;17.45;;;;;;;;;;6350531;27;20022;-80
2022/04/09 01:53:18;;;;;;;34.30;17.00;;;;;;;;;;6370186;27;20023;-80
2022/04/09 01:56:19;;;;;;;30.65;15.70;;;;;;;;;;6350991;27;20261;-80
2022/04/09 01:59:19;;;;;;;29.35;17.20;;;;;;;;;;6370370;27;20075;-80
2022/04/09 02:02:19;;;;;;;26.80;16.50;;;;;;;;;;6370213;27;20023;-80
2022/04/09 02:05:20;;;;;;;27.95;16.20;;;;;;;;;;6370243;27;20031;-80
2022/04/09 02:08:21;;;;;;;31.05;17.85;;;;;;;;;;6351704;27;20439;-80
2022/04/09 02:11:23;;;;;;;31.27;17.38;;;;;;;;;;6351247;27;20047;-80
2022/04/09 02:14:23;;;;;;;30.58;18.17;;;;;;;;;;6351410;27;20015;-80
2022/04/09 02:17:23;;;;;;;29.53;16.33;;;;;;;;;;6351309;27;20116;-80
2022/04/09 02:20:24;;;;;;;28.13;16.23;;;;;;;;;;6343992;28;20622;-80
2022/04/09 02:23:24;;;;;;;30.33;17.58;;;;;;;;;;6344470;28;20035;-80
2022/04/09 02:26:24;;;;;;;31.75;16.40;;;;;;;;;;6363513;27;20059;-80
2022/04/09 02:29:25;;;;;;;27.17;15.80;;;;;;;;;;6369621;27;20027;-80
2022/04/09 02:32:25;;;;;;;23.10;14.45;;;;;;;;;;6369016;27;20308;-79
2022/04/09 02:35:26;;;;;;;18.52;10.55;;;;;;;;;;6351200;27;20038;-80
2022/04/09 02:38:27;;;;;;;17.10;9.50;;;;;;;;;;6370391;27;20016;-80
2022/04/09 02:41:29;;;;;;;17.63;8.45;;;;;;;;;;6369828;28;20019;-80
2022/04/09 02:44:30;;;;;;;17.55;8.73;;;;;;;;;;6375499;27;20785;-80
2022/04/09 02:47:31;;;;;;;12.07;5.80;;;;;;;;;;6395530;27;20067;-80
2022/04/09 02:50:31;;;;;;;15.77;7.63;;;;;;;;;;6394939;27;20021;-80
2022/04/09 02:53:32;;;;;;;14.82;8.65;;;;;;;;;;6376513;27;20011;-80
2022/04/09 02:56:32;;;;;;;13.90;8.18;;;;;;;;;;6354768;27;20024;-80
2022/04/09 02:59:32;;;;;;;12.27;7.03;;;;;;;;;;6326329;28;20027;-80
2022/04/09 03:02:38;;;;;;;12.93;7.00;;;;;;;;;;6350449;27;20061;-80
2022/04/09 03:05:38;;;;;;;12.55;7.55;;;;;;;;;;6374208;27;20257;-80
2022/04/09 03:08:39;;;;;;;13.27;6.63;;;;;;;;;;6356128;27;20159;-80
2022/04/09 03:11:39;;;;;;;13.95;8.10;;;;;;;;;;6355578;27;20338;-80
2022/04/09 03:14:39;;;;;;;12.52;8.10;;;;;;;;;;6356053;27;20477;-80
2022/04/09 03:17:40;;;;;;;13.03;8.17;;;;;;;;;;6355768;27;20023;-80
2022/04/09 03:20:40;;;;;;;14.70;8.70;;;;;;;;;;6374168;27;20264;-80
2022/04/09 03:23:40;;;;;;;12.53;8.30;;;;;;;;;;6356064;27;20016;-80
2022/04/09 03:26:40;;;;;;;14.10;8.73;;;;;;;;;;6374264;27;20257;-80
2022/04/09 03:29:41;;;;;;;15.70;8.50;;;;;;;;;;6355742;27;20015;-80
2022/04/09 03:32:41;;;;;;;13.40;7.63;;;;;;;;;;6373788;27;20760;-80
2022/04/09 03:35:42;;;;;;;15.30;8.80;;;;;;;;;;6373829;27;20068;-80
2022/04/09 03:38:42;;;;;;;18.70;10.60;;;;;;;;;;6373407;27;20051;-79
2022/04/09 03:41:42;;;;;;;22.60;13.98;;;;;;;;;;6354276;27;20026;-79
2022/04/09 03:44:43;;;;;;;37.83;20.10;;;;;;;;;;6353955;27;20026;-79
2022/04/09 03:47:43;;;;;;;30.73;18.50;;;;;;;;;;6372194;27;20272;-78
2022/04/09 03:50:43;;;;;;;25.57;16.47;;;;;;;;;;6371859;27;20336;-78
2022/04/09 03:53:43;;;;;;;26.73;16.40;;;;;;;;;;6372219;27;20674;-79
2022/04/09 03:56:44;;;;;;;39.05;21.70;;;;;;;;;;6371680;27;20601;-78
2022/04/09 03:59:44;;;;;;;38.40;22.30;;;;;;;;;;6371994;27;20046;-78
2022/04/09 04:02:44;;;;;;;48.93;27.83;;;;;;;;;;6371638;27;20022;-78
2022/04/09 04:05:44;;;;;;;52.50;28.88;;;;;;;;;;6353548;27;20296;-78
2022/04/09 04:08:45;;;;;;;54.30;30.07;;;;;;;;;;6372323;27;20390;-78
2022/04/09 04:11:45;;;;;;;57.97;32.08;;;;;;;;;;6370705;27;20810;-77
2022/04/09 04:14:45;;;;;;;58.80;29.20;;;;;;;;;;6353440;27;20015;-78
2022/04/09 04:17:45;;;;;;;46.83;25.65;;;;;;;;;;6329324;28;20469;-78
2022/04/09 04:20:46;;;;;;;43.67;26.27;;;;;;;;;;6346227;28;20104;-78
2022/04/09 04:23:46;;;;;;;47.07;24.90;;;;;;;;;;6366301;27;20027;-78
2022/04/09 04:26:46;;;;;;;37.88;21.55;;;;;;;;;;6371473;27;20279;-78
2022/04/09 04:29:46;;;;;;;34.45;20.98;;;;;;;;;;6351875;27;20128;-79
2022/04/09 04:32:46;;;;;;;40.33;22.70;;;;;;;;;;6369876;27;20179;-79
2022/04/09 04:35:47;;;;;;;43.20;24.45;;;;;;;;;;6352502;27;20289;-79
2022/04/09 04:38:47;;;;;;;43.92;25.73;;;;;;;;;;6353696;27;20428;-78
2022/04/09 04:41:47;;;;;;;44.40;25.88;;;;;;;;;;6352719;27;20530;-78
2022/04/09 04:44:48;;;;;;;42.90;24.50;;;;;;;;;;6370957;27;20027;-78
2022/04/09 04:47:48;;;;;;;46.00;24.83;;;;;;;;;;6371484;27;20035;-79
2022/04/09 04:50:49;;;;;;;40.75;21.55;;;;;;;;;;6353866;27;20253;-80
2022/04/09 04:53:49;;;;;;;40.55;21.48;;;;;;;;;;6371964;27;20114;-79
2022/04/09 04:56:49;;;;;;;35.33;18.90;;;;;;;;;;6364209;27;20094;-79
2022/04/09 04:59:49;;;;;;;36.65;20.23;;;;;;;;;;6345548;27;20303;-79
2022/04/09 05:02:51;;;;;;;35.57;16.73;;;;;;;;;;6354278;27;20094;-78
2022/04/09 05:05:51;;;;;;;29.77;14.80;;;;;;;;;;6347222;27;20289;-78
2022/04/09 05:08:51;;;;;;;27.38;15.80;;;;;;;;;;6341450;27;20403;-78
2022/04/09 05:11:51;;;;;;;24.23;14.03;;;;;;;;;;6353821;27;20413;-78
2022/04/09 05:14:51;;;;;;;31.98;16.75;;;;;;;;;;6344192;27;20776;-79
2022/04/09 05:17:52;;;;;;;28.53;16.93;;;;;;;;;;6337186;27;20545;-78
2022/04/09 05:20:52;;;;;;;23.00;12.88;;;;;;;;;;6348502;27;20796;-78
2022/04/09 05:23:52;;;;;;;16.57;10.17;;;;;;;;;;6344593;27;20062;-79
2022/04/09 05:26:52;;;;;;;18.55;9.80;;;;;;;;;;6344392;27;20284;-78
2022/04/09 05:29:53;;;;;;;12.80;7.70;;;;;;;;;;6350924;27;20016;-79
2022/04/09 05:32:53;;;;;;;17.80;9.02;;;;;;;;;;6330238;27;20281;-79
2022/04/09 05:35:54;;;;;;;12.02;7.28;;;;;;;;;;6351685;27;20023;-79
2022/04/09 05:38:54;;;;;;;18.00;9.43;;;;;;;;;;6351030;27;20107;-79
2022/04/09 05:41:54;;;;;;;18.02;11.02;;;;;;;;;;6347525;27;20064;-79
2022/04/09 05:44:55;;;;;;;20.52;11.60;;;;;;;;;;6353046;27;20528;-79
2022/04/09 05:47:55;;;;;;;20.67;11.32;;;;;;;;;;6343170;27;20027;-80
2022/04/09 05:50:55;;;;;;;23.73;13.27;;;;;;;;;;6342329;27;20066;-81
2022/04/09 05:53:55;;;;;;;28.27;14.45;;;;;;;;;;6343214;27;20678;-80
2022/04/09 05:56:56;;;;;;;29.20;14.65;;;;;;;;;;6358528;27;20027;-81
2022/04/09 05:59:56;;;;;;;31.38;18.15;;;;;;;;;;6331886;27;20086;-81
2022/04/09 06:02:56;;;;;;;31.88;19.25;;;;;;;;;;6352854;27;20023;-81
2022/04/09 06:05:58;;;;;;;36.85;22.88;;;;;;;;;;6360935;27;20083;-81
2022/04/09 06:08:58;;;;;;;38.35;21.42;;;;;;;;;;6337240;27;20030;-81
2022/04/09 06:11:58;;;;;;;36.47;21.70;;;;;;;;;;6349354;27;20418;-81
2022/04/09 06:14:59;;;;;;;31.13;21.65;;;;;;;;;;6341347;27;20088;-82
2022/04/09 06:18:06;;;;;;;30.80;18.92;;;;;;;;;;6341750;27;20030;-82
2022/04/09 06:21:07;;;;;;;29.10;19.13;;;;;;;;;;6350565;27;20144;-82
2022/04/09 06:24:07;;;;;;;32.33;19.52;;;;;;;;;;6346855;27;20035;-82
2022/04/09 06:27:10;;;;;;;33.47;21.70;;;;;;;;;;6340018;27;20096;-82
2022/04/09 06:30:11;;;;;;;29.75;18.10;;;;;;;;;;6332001;28;20133;-82
2022/04/09 06:33:11;;;;;;;30.35;16.40;;;;;;;;;;6350455;27;20047;-83
2022/04/09 06:36:11;;;;;;;21.55;13.85;;;;;;;;;;6338257;27;20015;-83
2022/04/09 06:39:11;;;;;;;19.33;11.32;;;;;;;;;;6333651;28;20011;-82
2022/04/09 06:42:12;;;;;;;17.63;10.93;;;;;;;;;;6350361;28;20542;-82
2022/04/09 06:45:13;;;;;;;19.52;11.20;;;;;;;;;;6329059;28;20026;-82
2022/04/09 06:48:14;;;;;;;20.45;12.05;;;;;;;;;;6355249;28;20038;-82
2022/04/09 06:51:14;;;;;;;21.77;12.40;;;;;;;;;;6367189;28;20705;-82
2022/04/09 06:54:14;;;;;;;22.93;12.90;;;;;;;;;;6348735;28;20747;-82
2022/04/09 06:57:15;;;;;;;21.00;12.40;;;;;;;;;;6366988;28;20270;-83
2022/04/09 07:00:15;;;;;;;29.30;14.60;;;;;;;;;;6367218;28;20047;-83
2022/04/09 07:03:15;;;;;;;30.33;15.65;;;;;;;;;;6367002;28;20043;-83
2022/04/09 07:06:17;;;;;;;24.80;15.98;;;;;;;;;;6367172;28;20057;-83
2022/04/09 07:09:17;;;;;;;23.58;15.68;;;;;;;;;;6349283;28;20054;-83
2022/04/09 07:12:17;;;;;;;26.85;15.68;;;;;;;;;;6348338;28;20026;-83
2022/04/09 07:15:18;;;;;;;27.27;18.05;;;;;;;;;;6367750;28;20014;-83
2022/04/09 07:18:18;;;;;;;45.83;21.98;;;;;;;;;;6367147;28;20049;-83
2022/04/09 07:21:20;;;;;;;34.87;19.80;;;;;;;;;;6348551;28;20055;-84
2022/04/09 07:24:20;;;;;;;34.55;19.20;;;;;;;;;;6345110;28;20277;-83
2022/04/09 07:27:20;;;;;;;32.58;18.30;;;;;;;;;;6358247;28;20450;-83
2022/04/09 07:30:21;;;;;;;34.13;18.13;;;;;;;;;;6339919;28;20492;-84
2022/04/09 07:33:21;;;;;;;33.47;18.10;;;;;;;;;;6344425;28;20278;-84
2022/04/09 07:36:21;;;;;;;32.92;18.52;;;;;;;;;;6337620;28;20409;-84
2022/04/09 07:39:22;;;;;;;38.45;19.50;;;;;;;;;;6349148;28;20015;-84
2022/04/09 07:42:22;;;;;;;35.17;20.73;;;;;;;;;;6361379;28;20031;-84
2022/04/09 07:45:23;;;;;;;37.33;21.55;;;;;;;;;;6326104;28;20041;-84
2022/04/09 07:48:23;;;;;;;35.63;21.15;;;;;;;;;;6356644;27;20079;-84
2022/04/09 07:51:23;;;;;;;31.60;18.73;;;;;;;;;;6356508;27;20064;-84
2022/04/09 07:54:24;;;;;;;30.98;18.33;;;;;;;;;;6359480;27;20370;-84
2022/04/09 07:57:24;;;;;;;32.20;19.42;;;;;;;;;;6359888;27;20043;-84
2022/04/09 08:00:25;;;;;;;33.42;20.77;;;;;;;;;;6350565;27;20027;-85
2022/04/09 08:03:25;;;;;;;25.40;15.05;;;;;;;;;;6342552;27;20415;-85
2022/04/09 08:06:25;;;;;;;29.48;17.67;;;;;;;;;;6366903;27;20484;-84
2022/04/09 08:09:25;;;;;;;37.28;18.50;;;;;;;;;;6355363;27;20432;-84
2022/04/09 08:12:26;;;;;;;28.58;16.30;;;;;;;;;;6346524;27;20011;-84
2022/04/09 08:15:26;;;;;;;31.45;19.63;;;;;;;;;;6351703;27;20034;-84
2022/04/09 08:18:26;;;;;;;26.85;16.48;;;;;;;;;;6347459;27;20031;-84
2022/04/09 08:21:26;;;;;;;28.33;15.20;;;;;;;;;;6350026;27;20484;-84
2022/04/09 08:24:27;;;;;;;26.33;17.40;;;;;;;;;;6335391;27;20277;-84
2022/04/09 08:27:27;;;;;;;29.23;17.25;;;;;;;;;;6348441;27;20450;-84
2022/04/09 08:30:29;;;;;;;23.13;14.10;;;;;;;;;;6328150;28;20016;-84
2022/04/09 08:33:29;;;;;;;27.33;14.98;;;;;;;;;;6346627;28;20050;-84
2022/04/09 08:36:29;;;;;;;27.13;16.27;;;;;;;;;;6347094;28;20019;-84
2022/04/09 08:39:30;;;;;;;23.60;13.52;;;;;;;;;;6355327;27;20020;-84
2022/04/09 08:42:30;;;;;;;22.52;13.88;;;;;;;;;;6358238;27;20068;-84
2022/04/09 08:45:35;;;;;;;24.20;14.10;;;;;;;;;;6346185;28;20065;-84
2022/04/09 08:48:36;;;;;;;41.38;23.85;;;;;;;;;;6326529;28;20053;-85
2022/04/09 08:51:36;;;;;;;33.22;20.85;;;;;;;;;;6344792;28;20023;-85
2022/04/09 08:54:37;;;;;;;28.52;17.67;;;;;;;;;;6349339;27;20047;-85
2022/04/09 08:57:38;;;;;;;29.15;17.38;;;;;;;;;;6368639;27;20027;-86
2022/04/09 09:00:39;;;;;;;35.30;21.45;;;;;;;;;;6336706;27;20473;-86
2022/04/09 09:03:39;;;;;;;39.35;20.05;;;;;;;;;;6338621;27;20015;-86
2022/04/09 09:06:40;;;;;;;50.05;28.00;;;;;;;;;;6353295;27;20064;-86
2022/04/09 09:09:40;;;;;;;46.17;26.17;;;;;;;;;;6339476;27;20042;-86
2022/04/09 09:12:41;;;;;;;50.53;28.73;;;;;;;;;;6350118;27;20477;-87
2022/04/09 09:15:46;;;;;;;53.33;29.35;;;;;;;;;;6349300;27;20015;-87
2022/04/09 09:18:49;;;;;;;52.33;29.80;;;;;;;;;;6344564;28;20032;-85
2022/04/09 09:21:53;;;;;;;65.47;33.60;;;;;;;;;;6327598;27;20030;-85
2022/04/09 09:25:04;;;;;;;57.10;34.35;;;;;;;;;;6364032;27;20031;-85
2022/04/09 09:28:04;;;;;;;66.45;33.60;;;;;;;;;;6353558;27;20019;-85
2022/04/09 09:31:05;;;;;;;58.72;33.35;;;;;;;;;;6364347;27;20076;-85
2022/04/09 09:34:12;;;;;;;47.20;23.20;;;;;;;;;;6367600;27;20126;-84
2022/04/09 09:37:20;;;;;;;38.67;24.40;;;;;;;;;;6351893;27;20035;-84
2022/04/09 09:40:32;;;;;;;43.33;27.27;;;;;;;;;;6352278;27;20023;-84
2022/04/09 09:43:32;;;;;;;46.85;23.98;;;;;;;;;;6341186;27;20031;-84
2022/04/09 09:46:33;;;;;;;46.55;25.38;;;;;;;;;;6323165;28;20125;-85
2022/04/09 09:49:37;;;;;;;46.28;28.00;;;;;;;;;;6340769;28;20027;-86
2022/04/09 09:52:37;;;;;;;32.13;18.38;;;;;;;;;;6340612;28;20094;-86
2022/04/09 09:55:44;;;;;;;53.92;29.45;;;;;;;;;;6338974;27;20433;-88
2022/04/09 09:58:44;;;;;;;52.70;27.08;;;;;;;;;;6331218;28;20023;-88
2022/04/09 10:01:47;;;;;;;51.50;28.98;;;;;;;;;;6341896;28;20031;-87
2022/04/09 10:04:47;;;;;;;30.35;17.10;;;;;;;;;;6333005;27;20022;-88
2022/04/09 10:07:49;;;;;;;49.25;27.10;;;;;;;;;;6338250;27;20470;-89
2022/04/09 10:10:50;;;;;;;42.05;23.00;;;;;;;;;;6359666;27;20031;-89
2022/04/09 10:13:51;;;;;;;49.47;25.92;;;;;;;;;;6342925;28;20020;-89
2022/04/09 10:16:52;;;;;;;36.75;22.15;;;;;;;;;;6335352;27;20073;-88
2022/04/09 10:19:56;;;;;;;57.08;27.35;;;;;;;;;;6332682;27;20023;-89
2022/04/09 10:23:01;;;;;;;44.33;21.75;;;;;;;;;;6348963;27;20048;-88
2022/04/09 10:26:02;;;;;;;57.70;33.53;;;;;;;;;;6361183;27;20011;-88
2022/04/09 10:29:03;;;;;;;75.85;39.78;;;;;;;;;;6350637;27;20014;-87
2022/04/09 10:32:03;;;;;;;71.13;37.55;;;;;;;;;;6350443;27;20071;-87
2022/04/09 10:35:21;;;;;;;62.20;33.30;;;;;;;;;;6354045;27;20019;-86
2022/04/09 10:38:22;;;;;;;41.88;24.13;;;;;;;;;;6352094;27;20015;-86
2022/04/09 10:41:23;;;;;;;31.37;18.23;;;;;;;;;;6349221;28;20012;-86
2022/04/09 10:44:42;;;;;;;19.95;12.00;;;;;;;;;;6370642;28;20851;-86
2022/04/09 10:48:01;;;;;;;40.47;21.73;;;;;;;;;;6369790;28;20019;-85
2022/04/09 10:51:05;;;;;;;46.25;26.85;;;;;;;;;;6369669;28;20090;-85
2022/04/09 10:54:05;;;;;;;37.60;24.05;;;;;;;;;;6369528;28;20098;-85
2022/04/09 10:57:07;;;;;;;33.00;18.52;;;;;;;;;;6330767;28;20027;-84
2022/04/09 11:00:09;;;;;;;33.35;20.73;;;;;;;;;;6344272;28;20474;-84
2022/04/09 11:03:17;;;;;;;39.45;20.88;;;;;;;;;;6350723;28;20015;-84
2022/04/09 11:06:44;;;;;;;32.08;19.40;;;;;;;;;;6325854;28;20077;-83
2022/04/09 11:10:14;;;;;;;32.83;20.27;;;;;;;;;;6326022;28;20035;-83
2022/04/09 11:13:14;;;;;;;33.55;19.67;;;;;;;;;;6316413;28;20036;-83
2022/04/09 11:16:15;;;;;;;45.97;22.40;;;;;;;;;;6355560;28;20072;-83
2022/04/09 11:19:15;;;;;;;28.67;18.25;;;;;;;;;;6368917;28;20023;-83
2022/04/09 11:22:15;;;;;;;31.13;19.17;;;;;;;;;;6352487;27;20027;-83
2022/04/09 11:25:18;;;;;;;31.73;19.00;;;;;;;;;;6374167;27;20106;-83
2022/04/09 11:28:19;;;;;;;33.65;19.33;;;;;;;;;;6355405;27;20517;-82
2022/04/09 11:31:20;;;;;;;31.90;17.60;;;;;;;;;;6362794;27;20016;-82
2022/04/09 11:34:20;;;;;;;32.80;15.13;;;;;;;;;;6360936;27;20019;-82
2022/04/09 11:37:21;;;;;;;26.67;16.70;;;;;;;;;;6355264;27;20497;-82
2022/04/09 11:40:22;;;;;;;23.80;13.63;;;;;;;;;;6332180;27;20313;-82
2022/04/09 11:43:23;;;;;;;25.33;14.02;;;;;;;;;;6370505;27;20019;-83
2022/04/09 11:46:23;;;;;;;20.20;14.38;;;;;;;;;;6355083;27;20261;-83
2022/04/09 11:49:30;;;;;;;22.30;10.90;;;;;;;;;;6372068;27;20023;-83
2022/04/09 11:52:31;;;;;;;29.25;15.15;;;;;;;;;;6372843;27;20015;-83
2022/04/09 11:55:31;;;;;;;24.80;13.40;;;;;;;;;;6355361;27;20026;-83
2022/04/09 11:58:33;;;;;;;42.58;19.25;;;;;;;;;;6354912;27;20102;-83
2022/04/09 12:01:34;;;;;;;40.75;19.20;;;;;;;;;;6366698;27;20023;-83
2022/04/09 12:04:34;;;;;;;34.78;19.27;;;;;;;;;;6357057;27;20027;-83
2022/04/09 12:07:39;;;;;;;32.95;17.20;;;;;;;;;;6358952;27;20505;-83
2022/04/09 12:10:54;;;;;;;34.03;14.32;;;;;;;;;;6359424;27;20522;-82
2022/04/09 12:13:54;;;;;;;23.02;14.73;;;;;;;;;;6356065;27;20027;-83
2022/04/09 12:16:55;;;;;;;40.13;21.67;;;;;;;;;;6351982;27;20031;-83
2022/04/09 12:19:56;;;;;;;38.55;18.15;;;;;;;;;;6343373;28;20549;-83
2022/04/09 12:22:56;;;;;;;37.90;17.55;;;;;;;;;;6347449;28;20018;-83
2022/04/09 12:25:57;;;;;;;81.68;44.55;;;;;;;;;;6350855;27;20092;-83
2022/04/09 12:29:17;;;;;;;43.95;20.85;;;;;;;;;;6348053;28;20423;-83
2022/04/09 12:32:19;;;;;;;23.60;14.00;;;;;;;;;;6347073;28;20039;-83
2022/04/09 12:35:21;;;;;;;;;;;;;;;;;;6350284;28;20011;-82
2022/04/09 12:38:31;;;;;;;19.90;10.43;;;;;;;;;;6358214;28;19904;-83
2022/04/09 12:41:44;;;;;;;15.13;8.18;;;;;;;;;;6352752;27;20047;-82
2022/04/09 12:44:45;;;;;;;19.58;11.88;;;;;;;;;;6327220;28;20110;-83
2022/04/09 12:48:13;;;;;;;17.35;10.43;;;;;;;;;;6338065;27;20023;-82
2022/04/09 12:51:14;;;;;;;19.20;11.15;;;;;;;;;;6340434;28;20026;-83
2022/04/09 12:54:14;;;;;;;13.63;9.15;;;;;;;;;;6348969;27;20023;-83
2022/04/09 12:57:15;;;;;;;16.33;11.17;;;;;;;;;;6371810;27;20030;-85
2022/04/09 13:00:15;;;;;;;13.73;6.93;;;;;;;;;;6358297;27;20291;-85
2022/04/09 13:03:17;;;;;;;14.52;8.23;;;;;;;;;;6356379;27;20028;-84
2022/04/09 13:06:17;;;;;;;10.47;6.67;;;;;;;;;;6347964;27;20043;-84
2022/04/09 13:09:17;;;;;;;10.43;5.70;;;;;;;;;;6355066;27;20080;-85
2022/04/09 13:12:17;;;;;;;12.40;7.07;;;;;;;;;;6358350;27;20260;-84
2022/04/09 13:15:17;;;;;;;19.23;10.40;;;;;;;;;;6353203;27;20482;-84
2022/04/09 13:18:18;;;;;;;21.43;13.90;;;;;;;;;;6357202;27;20023;-84
2022/04/09 13:21:18;;;;;;;36.78;22.70;;;;;;;;;;6357096;27;20330;-84
2022/04/09 13:24:18;;;;;;;22.10;13.45;;;;;;;;;;6356219;27;20015;-83
2022/04/09 13:27:18;;;;;;;14.80;10.00;;;;;;;;;;6333953;27;20419;-83
2022/04/09 13:30:19;;;;;;;19.80;11.47;;;;;;;;;;6340172;27;20593;-83
2022/04/09 13:33:19;;;;;;;17.27;12.20;;;;;;;;;;6342833;27;20836;-83
2022/04/09 13:36:20;;;;;;;31.17;16.67;;;;;;;;;;6355183;27;20023;-84
2022/04/09 13:39:20;;;;;;;24.73;17.63;;;;;;;;;;6351602;27;20114;-84
2022/04/09 13:42:22;;;;;;;21.17;10.10;;;;;;;;;;6358107;27;20522;-84
2022/04/09 13:45:22;;;;;;;15.43;8.43;;;;;;;;;;6366761;27;20087;-84
2022/04/09 13:48:23;;;;;;;14.50;7.78;;;;;;;;;;6349967;27;20066;-83
2022/04/09 13:51:23;;;;;;;11.10;6.80;;;;;;;;;;6368774;27;20444;-83
2022/04/09 13:54:24;;;;;;;14.30;7.27;;;;;;;;;;6350158;27;20019;-84
2022/04/09 13:57:24;;;;;;;7.85;4.80;;;;;;;;;;6369935;27;20754;-83
2022/04/09 14:00:24;;;;;;;17.05;5.07;;;;;;;;;;6369802;27;20489;-83
2022/04/09 14:03:24;;;;;;;10.68;4.55;;;;;;;;;;6369832;27;20031;-83
2022/04/09 14:06:25;;;;;;;12.52;5.82;;;;;;;;;;6351500;27;20033;-83
2022/04/09 14:09:25;;;;;;;7.13;3.55;;;;;;;;;;6369767;27;20122;-83
2022/04/09 14:12:26;;;;;;;10.45;4.20;;;;;;;;;;6369610;27;20087;-83
2022/04/09 14:15:26;;;;;;;7.72;4.53;;;;;;;;;;6369151;27;20038;-83
2022/04/09 14:18:26;;;;;;;13.87;6.50;;;;;;;;;;6350967;27;20025;-84
2022/04/09 14:21:28;;;;;;;11.00;5.55;;;;;;;;;;6369472;27;20107;-84
2022/04/09 14:24:28;;;;;;;19.60;10.75;;;;;;;;;;6368784;27;20082;-83
2022/04/09 14:27:28;;;;;;;14.27;4.40;;;;;;;;;;6350849;27;20019;-83
2022/04/09 14:30:29;;;;;;;9.57;4.57;;;;;;;;;;6369216;27;20355;-84
2022/04/09 14:33:30;;;;;;;11.45;4.55;;;;;;;;;;6367422;27;20323;-83
2022/04/09 14:36:30;;;;;;;18.17;9.00;;;;;;;;;;6350916;27;20366;-84
2022/04/09 14:39:30;;;;;;;13.20;7.53;;;;;;;;;;6350435;27;20397;-84
2022/04/09 14:42:30;;;;;;;11.68;7.82;;;;;;;;;;6342617;28;20018;-84
2022/04/09 14:45:31;;;;;;;11.73;5.63;;;;;;;;;;6346764;28;20382;-84
2022/04/09 14:48:33;;;;;;;9.98;4.82;;;;;;;;;;6350772;28;20015;-84
2022/04/09 14:51:34;;;;;;;9.05;4.35;;;;;;;;;;6368841;28;20007;-84
2022/04/09 14:54:34;;;;;;;11.43;5.10;;;;;;;;;;6350092;28;20029;-84
2022/04/09 14:57:34;;;;;;;11.98;6.00;;;;;;;;;;6354907;27;20064;-84
2022/04/09 15:00:34;;;;;;;12.93;5.05;;;;;;;;;;6374915;27;20019;-85
2022/04/09 15:03:35;;;;;;;10.83;5.87;;;;;;;;;;6355926;27;20023;-84
2022/04/09 15:06:36;;;;;;;10.13;4.75;;;;;;;;;;6374897;27;20268;-84
2022/04/09 15:09:37;;;;;;;13.43;6.32;;;;;;;;;;6355152;27;20031;-84
2022/04/09 15:12:37;;;;;;;10.10;5.18;;;;;;;;;;6374276;27;20427;-84
2022/04/09 15:15:38;;;;;;;10.75;5.00;;;;;;;;;;6372487;27;20023;-84
2022/04/09 15:18:42;;;;;;;8.10;3.65;;;;;;;;;;6355742;27;20023;-84
2022/04/09 15:21:43;;;;;;;16.45;9.48;;;;;;;;;;6355315;27;20106;-84
2022/04/09 15:24:43;;;;;;;13.50;4.78;;;;;;;;;;6355390;27;20055;-84
2022/04/09 15:27:43;;;;;;;10.73;4.90;;;;;;;;;;6373749;27;20106;-84
2022/04/09 15:30:44;;;;;;;10.53;4.93;;;;;;;;;;6372805;27;20015;-84
2022/04/09 15:33:44;;;;;;;19.38;6.03;;;;;;;;;;6373195;27;20287;-84
2022/04/09 15:36:45;;;;;;;17.08;7.30;;;;;;;;;;6373872;27;20023;-84
2022/04/09 15:39:45;;;;;;;7.55;3.55;;;;;;;;;;6355315;27;20426;-84
2022/04/09 15:42:45;;;;;;;18.10;7.30;;;;;;;;;;6354320;27;20529;-84
2022/04/09 15:45:46;;;;;;;9.95;4.30;;;;;;;;;;6373217;27;20069;-85
2022/04/09 15:48:46;;;;;;;11.57;5.43;;;;;;;;;;6359613;27;20055;-84
2022/04/09 15:51:46;;;;;;;21.50;10.97;;;;;;;;;;6369941;27;20348;-84
2022/04/09 15:54:47;;;;;;;17.63;8.07;;;;;;;;;;6349051;27;20375;-84
2022/04/09 15:57:48;;;;;;;20.88;6.65;;;;;;;;;;6363987;27;20051;-85
2022/04/09 16:00:49;;;;;;;12.95;6.50;;;;;;;;;;6335220;27;20038;-84
2022/04/09 16:03:49;;;;;;;14.93;5.30;;;;;;;;;;6353554;27;20538;-84
2022/04/09 16:06:49;;;;;;;19.92;9.65;;;;;;;;;;6368981;27;20507;-84
2022/04/09 16:09:50;;;;;;;20.43;9.70;;;;;;;;;;6372689;27;20065;-84
2022/04/09 16:12:50;;;;;;;16.42;8.18;;;;;;;;;;6373999;27;20385;-85
2022/04/09 16:15:50;;;;;;;14.80;7.53;;;;;;;;;;6371201;27;20023;-85
2022/04/09 16:18:50;;;;;;;7.20;3.20;;;;;;;;;;6354493;27;20049;-84
2022/04/09 16:21:51;;;;;;;16.03;7.97;;;;;;;;;;6372951;27;20351;-84
2022/04/09 16:24:51;;;;;;;19.20;11.05;;;;;;;;;;6341825;27;20273;-85
2022/04/09 16:27:51;;;;;;;15.90;7.03;;;;;;;;;;6354527;27;20172;-84
2022/04/09 16:30:51;;;;;;;34.10;15.57;;;;;;;;;;6354933;27;20257;-84
2022/04/09 16:33:52;;;;;;;9.63;3.63;;;;;;;;;;6360880;27;20285;-85
2022/04/09 16:36:52;;;;;;;9.32;5.03;;;;;;;;;;6353791;27;20281;-84
2022/04/09 16:39:52;;;;;;;7.22;2.85;;;;;;;;;;6350901;27;20542;-84
2022/04/09 16:42:53;;;;;;;2.75;2.00;;;;;;;;;;6329891;27;20036;-84
2022/04/09 16:45:53;;;;;;;8.00;2.50;;;;;;;;;;6348326;27;20026;-84
2022/04/09 16:48:54;;;;;;;6.90;2.75;;;;;;;;;;6364899;27;20517;-84
2022/04/09 16:51:54;;;;;;;3.95;2.15;;;;;;;;;;6342179;27;20027;-84
2022/04/09 16:54:54;;;;;;;7.90;3.70;;;;;;;;;;6371444;27;20435;-84
2022/04/09 16:57:54;;;;;;;20.75;11.43;;;;;;;;;;6352993;27;20690;-84
2022/04/09 17:00:54;;;;;;;29.95;18.85;;;;;;;;;;6353509;27;20019;-85
2022/04/09 17:03:55;;;;;;;16.13;9.17;;;;;;;;;;6340074;28;20440;-85
2022/04/09 17:06:55;;;;;;;29.95;13.23;;;;;;;;;;6346458;28;20659;-85
2022/04/09 17:09:57;;;;;;;28.77;13.73;;;;;;;;;;6332133;27;20030;-85
2022/04/09 17:12:57;;;;;;;31.85;16.67;;;;;;;;;;6346593;27;20379;-85
2022/04/09 17:15:57;;;;;;;61.60;28.45;;;;;;;;;;6329020;27;20037;-84
2022/04/09 17:18:57;;;;;;;109.60;49.80;;;;;;;;;;6328690;27;20031;-84
2022/04/09 17:21:57;;;;;;;106.67;43.43;;;;;;;;;;6351989;27;20088;-84
2022/04/09 17:24:58;;;;;;;130.83;57.70;;;;;;;;;;6335678;27;20317;-84
2022/04/09 17:27:59;;;;;;;99.57;40.13;;;;;;;;;;6371769;27;20280;-84
2022/04/09 17:31:02;;;;;;;40.10;19.35;;;;;;;;;;6371493;27;20746;-85
2022/04/09 17:34:02;;;;;;;39.60;17.40;;;;;;;;;;6371293;27;20506;-84
2022/04/09 17:37:04;;;;;;;61.33;22.48;;;;;;;;;;6353433;27;20034;-84
2022/04/09 17:40:05;;;;;;;32.05;13.82;;;;;;;;;;6364812;27;20019;-85
2022/04/09 17:43:05;;;;;;;45.30;20.75;;;;;;;;;;6358957;27;20064;-85